Time;durP1;ratioP1;P1;durP2;ratioP2;P2;SDS_P1;SDS_P2;PMS_P1;PMS_P2;Temp;Humidity;BMP_temperature;BMP_pressure;BME280_temperature;BME280_humidity;BME280_pressure;Samples;Min_cycle;Max_cycle;Signal;HPM_P1;HPM_P2
2021/06/25 00:01:23;;;;;;;;;23.00;22.00;;;;;19.63;44.46;101599.66;5076999;27;45708;-51
2021/06/25 00:03:49;;;;;;;;;20.00;19.50;;;;;19.61;44.70;101600.69;5076868;28;45404;-49
2021/06/25 00:06:14;;;;;;;;;21.75;21.25;;;;;19.60;45.00;101594.41;5076307;27;45566;-50
2021/06/25 00:08:39;;;;;;;;;21.50;21.50;;;;;19.59;44.64;101589.09;5079017;28;47993;-50
2021/06/25 00:11:05;;;;;;;;;23.50;21.50;;;;;19.58;44.95;101590.94;5072636;28;45369;-51
2021/06/25 00:13:31;;;;;;;;;21.75;20.50;;;;;19.54;44.82;101588.38;5072905;28;45467;-50
2021/06/25 00:15:56;;;;;;;;;25.75;21.25;;;;;19.52;44.87;101593.84;5072322;28;45560;-53
2021/06/25 00:18:22;;;;;;;;;23.50;23.50;;;;;19.49;45.22;101588.59;5074280;28;48396;-50
2021/06/25 00:20:47;;;;;;;;;21.00;21.00;;;;;19.47;45.26;101589.63;5071130;28;46185;-47
2021/06/25 00:23:13;;;;;;;;;19.25;19.25;;;;;19.43;45.64;101588.84;5076667;27;45794;-48
2021/06/25 00:25:38;;;;;;;;;20.75;19.75;;;;;19.37;45.38;101576.56;5060635;28;45224;-48
2021/06/25 00:28:04;;;;;;;;;20.00;20.00;;;;;19.36;45.36;101582.91;5060353;28;47561;-49
2021/06/25 00:30:29;;;;;;;;;26.25;22.75;;;;;19.36;45.89;101580.19;5060599;28;45293;-50
2021/06/25 00:32:55;;;;;;;;;21.75;21.00;;;;;19.36;45.61;101576.63;5063650;28;45555;-51
2021/06/25 00:35:20;;;;;;;;;23.00;22.50;;;;;19.32;45.79;101583.13;5081180;28;45499;-49
2021/06/25 00:37:47;;;;;;;;;25.75;23.75;;;;;19.28;45.46;101581.47;5079667;27;48076;-54
2021/06/25 00:40:13;;;;;;;;;26.50;23.00;;;;;19.26;46.00;101577.97;5079362;27;46006;-53
2021/06/25 00:42:39;;;;;;;;;38.25;34.00;;;;;19.22;46.41;101571.88;5096109;27;45515;-51
2021/06/25 00:45:19;;;;;;;;;31.00;29.25;;;;;19.21;46.41;101575.50;5076019;28;45599;-51
2021/06/25 00:47:47;;;;;;;;;27.50;25.75;;;;;19.20;46.71;101567.50;5083227;27;47040;-51
2021/06/25 00:50:15;;;;;;;;;29.25;26.50;;;;;19.20;46.49;101564.81;5074359;28;45925;-49
2021/06/25 00:52:41;;;;;;;;;29.00;27.00;;;;;19.18;46.69;101562.16;5074178;28;45712;-51
2021/06/25 00:55:07;;;;;;;;;28.00;26.25;;;;;19.19;46.71;101557.69;5079231;27;45288;-50
2021/06/25 00:57:33;;;;;;;;;24.75;23.75;;;;;19.21;46.74;101556.66;5088104;27;45497;-49
2021/06/25 00:59:59;;;;;;;;;23.00;21.00;;;;;19.21;46.89;101555.78;5072719;28;45643;-49
2021/06/25 01:02:24;;;;;;;;;23.50;23.00;;;;;19.20;46.77;101544.16;5060442;28;45621;-51
2021/06/25 01:04:51;;;;;;;;;26.50;23.50;;;;;19.22;46.81;101546.78;5060508;28;45471;-48
2021/06/25 01:07:17;;;;;;;;;19.00;19.00;;;;;19.21;47.08;101545.03;5060674;28;47203;-48
2021/06/25 01:09:43;;;;;;;;;25.50;23.50;;;;;19.20;47.08;101540.59;5095014;27;45665;-52
2021/06/25 01:12:10;;;;;;;;;28.25;24.75;;;;;19.20;47.18;101543.28;5076561;28;45470;-48
2021/06/25 01:14:38;;;;;;;;;26.75;25.00;;;;;19.17;47.08;101543.41;5083652;27;45486;-53
2021/06/25 01:17:06;;;;;;;;;27.25;23.00;;;;;19.13;47.24;101534.59;5077904;28;47385;-52
2021/06/25 01:19:31;;;;;;;;;23.25;23.25;;;;;19.14;47.23;101540.84;5080178;27;45367;-48
2021/06/25 01:21:57;;;;;;;;;21.50;20.25;;;;;19.11;47.41;101539.19;5079240;28;45475;-52
2021/06/25 01:24:22;;;;;;;;;24.00;23.50;;;;;19.07;47.35;101537.56;5072315;27;45341;-51
2021/06/25 01:26:48;;;;;;;;;22.50;21.75;;;;;19.02;47.96;101532.38;5079233;28;47029;-49
2021/06/25 01:29:13;;;;;;;;;27.50;26.75;;;;;19.03;47.83;101533.25;5078799;28;45821;-53
2021/06/25 01:31:39;;;;;;;;;24.75;23.75;;;;;19.03;47.66;101528.72;5068404;27;45562;-56
2021/06/25 01:34:05;;;;;;;;;27.75;25.50;;;;;19.03;48.11;101528.72;5076028;28;45575;-50
2021/06/25 01:36:31;;;;;;;;;27.50;27.00;;;;;18.99;48.01;101529.81;5078524;28;47467;-50
2021/06/25 01:38:59;;;;;;;;;25.25;22.25;;;;;18.94;47.97;101536.34;5079169;27;45403;-50
2021/06/25 01:41:24;;;;;;;;;29.50;28.50;;;;;18.92;48.22;101530.16;5066622;28;45474;-49
2021/06/25 01:43:52;;;;;;;;;25.50;25.50;;;;;18.90;48.50;101526.66;5079667;27;45522;-50
2021/06/25 01:46:19;;;;;;;;;24.50;23.75;;;;;18.85;48.25;101523.31;5078973;27;47437;-48
2021/06/25 01:48:44;;;;;;;;;24.00;23.00;;;;;18.83;48.66;101526.06;5078852;27;45706;-49
2021/06/25 01:51:10;;;;;;;;;29.25;28.00;;;;;18.81;48.58;101523.44;5078516;28;45348;-47
2021/06/25 01:53:35;;;;;;;;;23.75;22.75;;;;;18.80;48.63;101520.78;5072694;27;45564;-50
2021/06/25 01:56:02;;;;;;;;;29.75;27.00;;;;;18.79;48.63;101519.03;5066938;28;46025;-52
2021/06/25 01:58:30;;;;;;;;;29.25;27.25;;;;;18.74;49.03;101510.31;5069966;27;45339;-51
2021/06/25 02:01:05;;;;;;;;;25.25;24.75;;;;;18.71;49.08;101516.69;5094758;27;45432;-50
2021/06/25 02:03:30;;;;;;;;;25.00;23.00;;;;;18.69;49.17;101509.66;5079943;27;45291;-50
2021/06/25 02:05:56;;;;;;;;;26.25;24.25;;;;;18.65;49.24;101506.19;5077478;27;48278;-50
2021/06/25 02:08:22;;;;;;;;;28.25;26.25;;;;;18.61;49.51;101498.31;5074092;28;45410;-50
2021/06/25 02:10:48;;;;;;;;;32.50;30.50;;;;;18.54;49.40;101494.97;5071612;28;45531;-49
2021/06/25 02:13:13;;;;;;;;;28.25;27.75;;;;;18.50;49.92;101494.25;5084002;27;45495;-49
2021/06/25 02:15:39;;;;;;;;;25.00;22.50;;;;;18.50;49.61;101493.38;5066379;27;45814;-50
2021/06/25 02:18:04;;;;;;;;;27.00;25.75;;;;;18.50;49.77;101488.88;5083753;27;45416;-47
2021/06/25 02:20:30;;;;;;;;;30.25;26.50;;;;;18.50;49.76;101485.31;5079284;27;45421;-48
2021/06/25 02:22:56;;;;;;;;;27.25;26.25;;;;;18.49;49.56;101486.25;5070613;27;45831;-52
2021/06/25 02:25:21;;;;;;;;;33.25;27.25;;;;;18.48;50.15;101476.44;5079016;27;46357;-51
2021/06/25 02:27:47;;;;;;;;;25.75;25.75;;;;;18.46;50.17;101489.94;5078711;27;45281;-48
2021/06/25 02:30:17;;;;;;;;;29.25;25.00;;;;;18.45;50.09;101482.81;5074870;27;45561;-47
2021/06/25 02:32:44;;;;;;;;;29.00;28.00;;;;;18.46;50.23;101484.56;5078367;28;45446;-49
2021/06/25 02:35:11;;;;;;;;;26.75;25.50;;;;;18.50;49.98;101475.44;5078874;27;48335;-52
2021/06/25 02:37:37;;;;;;;;;26.00;23.00;;;;;18.53;50.27;101474.41;5078549;27;46010;-51
2021/06/25 02:40:04;;;;;;;;;30.50;29.00;;;;;18.54;50.35;101473.47;5077164;27;45409;-50
2021/06/25 02:42:29;;;;;;;;;28.25;26.25;;;;;18.52;50.19;101468.16;5077325;28;45990;-52
2021/06/25 02:44:55;;;;;;;;;26.25;24.25;;;;;18.51;50.21;101461.06;5078549;28;46094;-51
2021/06/25 02:47:20;;;;;;;;;26.00;24.50;;;;;18.52;50.12;101473.53;5084997;27;45424;-49
2021/06/25 02:49:46;;;;;;;;;25.75;25.75;;;;;18.50;50.24;101463.81;5068120;28;45646;-48
2021/06/25 02:52:11;;;;;;;;;29.50;28.00;;;;;18.49;50.28;101460.25;5077371;27;45846;-50
2021/06/25 02:54:37;;;;;;;;;27.50;25.25;;;;;18.52;50.43;101465.47;5076194;28;47674;-49
2021/06/25 02:57:03;;;;;;;;;25.75;25.00;;;;;18.55;50.48;101461.81;5065331;28;45448;-50
2021/06/25 02:59:29;;;;;;;;;24.00;23.50;;;;;18.56;50.16;101462.69;5078986;27;45381;-51
2021/06/25 03:01:54;;;;;;;;;30.00;27.50;;;;;18.56;50.45;101470.75;5059355;28;45506;-49
2021/06/25 03:04:20;;;;;;;;;27.50;27.50;;;;;18.56;50.33;101465.38;5044039;28;48032;-52
2021/06/25 03:06:45;;;;;;;;;22.50;22.50;;;;;18.56;50.27;101468.06;5068610;28;46031;-48
2021/06/25 03:09:11;;;;;;;;;25.50;25.50;;;;;18.56;50.69;101462.69;5076757;27;45357;-50
2021/06/25 03:11:37;;;;;;;;;28.25;24.75;;;;;18.55;50.67;101469.88;5078611;27;45472;-50
2021/06/25 03:14:02;;;;;;;;;27.00;26.50;;;;;18.54;50.57;101462.72;5069891;28;47076;-51
2021/06/25 03:16:28;;;;;;;;;26.50;25.00;;;;;18.50;50.57;101458.44;5077102;28;45319;-53
2021/06/25 03:18:53;;;;;;;;;27.00;25.50;;;;;18.47;50.88;101462.13;5076088;28;45727;-51
2021/06/25 03:21:18;;;;;;;;;27.75;27.25;;;;;18.44;50.60;101459.59;5077423;28;45349;-51
2021/06/25 03:23:44;;;;;;;;;31.00;31.00;;;;;18.43;50.78;101457.84;5069714;28;46217;-48
2021/06/25 03:26:10;;;;;;;;;28.25;26.75;;;;;18.43;51.13;101456.97;5078239;27;45311;-50
2021/06/25 03:28:35;;;;;;;;;25.00;25.00;;;;;18.43;51.07;101465.91;5058363;28;45632;-50
2021/06/25 03:31:01;;;;;;;;;30.75;28.25;;;;;18.42;50.99;101465.94;5059285;28;45786;-53
2021/06/25 03:33:26;;;;;;;;;26.75;26.50;;;;;18.39;51.08;101456.19;5077851;28;47484;-50
2021/06/25 03:35:52;;;;;;;;;28.50;27.75;;;;;18.39;51.31;101472.31;5077937;28;45322;-51
2021/06/25 03:38:18;;;;;;;;;24.50;23.25;;;;;18.40;51.13;101463.31;5069930;27;45435;-52
2021/06/25 03:40:43;;;;;;;;;22.00;21.25;;;;;18.41;51.44;101464.19;5078596;28;45383;-51
2021/06/25 03:43:08;;;;;;;;;27.75;25.50;;;;;18.42;51.30;101460.56;5081213;27;47261;-51
2021/06/25 03:45:34;;;;;;;;;27.00;26.75;;;;;18.43;51.46;101465.03;5076904;27;45519;-52
2021/06/25 03:48:00;;;;;;;;;28.00;28.00;;;;;18.44;51.32;101469.47;5088116;27;45418;-49
2021/06/25 03:50:25;;;;;;;;;31.00;28.00;;;;;18.46;51.71;101463.06;5077262;28;45687;-53
2021/06/25 03:52:51;;;;;;;;;27.50;26.50;;;;;18.49;51.46;101468.31;5071579;27;47363;-53
2021/06/25 03:55:17;;;;;;;;;22.50;20.25;;;;;18.51;51.32;101468.25;5081068;27;45392;-50
2021/06/25 03:57:43;;;;;;;;;25.00;23.25;;;;;18.54;51.57;101462.72;5080064;27;45380;-52
2021/06/25 04:00:12;;;;;;;;;24.50;22.75;;;;;18.58;51.70;101450.06;5074548;28;45515;-47
2021/06/25 04:02:38;;;;;;;;;25.00;23.75;;;;;18.62;51.50;101460.59;5059518;28;47119;-49
2021/06/25 04:05:07;;;;;;;;;28.75;26.50;;;;;18.64;51.06;101444.44;5054498;28;45994;-53
2021/06/25 04:07:33;;;;;;;;;24.75;24.75;;;;;18.64;51.33;101450.69;5067838;28;45453;-53
2021/06/25 04:10:01;;;;;;;;;31.50;31.25;;;;;18.64;51.21;101448.00;5065871;27;45575;-50
2021/06/25 04:12:26;;;;;;;;;26.25;25.25;;;;;18.68;51.33;101448.75;5067165;28;47281;-51
2021/06/25 04:14:52;;;;;;;;;29.50;28.00;;;;;18.72;51.12;101451.22;5075672;27;47097;-52
2021/06/25 04:17:17;;;;;;;;;25.00;24.75;;;;;18.74;50.93;101448.47;5072367;27;45749;-50
2021/06/25 04:19:43;;;;;;;;;26.00;26.00;;;;;18.76;51.11;101452.81;5067475;27;45531;-51
2021/06/25 04:22:08;;;;;;;;;29.50;28.50;;;;;18.78;50.76;101450.94;5079358;27;47104;-48
2021/06/25 04:24:34;;;;;;;;;29.00;29.00;;;;;18.77;50.67;101449.19;5080627;28;45355;-47
2021/06/25 04:26:59;;;;;;;;;26.25;23.50;;;;;18.79;50.98;101454.50;5081215;28;45450;-50
2021/06/25 04:29:25;;;;;;;;;29.50;27.50;;;;;18.83;50.83;101455.25;5080162;27;45372;-48
2021/06/25 04:31:53;;;;;;;;;27.00;22.75;;;;;18.89;51.01;101457.66;5078746;27;47077;-50
2021/06/25 04:34:19;;;;;;;;;25.75;24.00;;;;;18.95;50.67;101457.41;5080596;27;45442;-53
2021/06/25 04:36:45;;;;;;;;;23.25;22.25;;;;;19.00;50.61;101463.44;5080055;27;45313;-48
2021/06/25 04:39:10;;;;;;;;;27.25;24.75;;;;;19.03;50.65;101458.78;5079237;28;45376;-46
2021/06/25 04:41:36;;;;;;;;;24.00;23.00;;;;;19.10;50.42;101454.03;5080480;28;47602;-49
2021/06/25 04:44:02;;;;;;;;;25.75;24.00;;;;;19.14;50.48;101449.38;5079677;28;46002;-49
2021/06/25 04:46:28;;;;;;;;;33.25;31.50;;;;;19.18;50.42;101449.16;5091944;27;45433;-49
2021/06/25 04:48:54;;;;;;;;;28.00;25.25;;;;;19.22;50.07;101453.47;5072020;28;45481;-49
2021/06/25 04:51:19;;;;;;;;;26.00;26.00;;;;;19.26;50.42;101448.81;5076962;27;45983;-48
2021/06/25 04:53:45;;;;;;;;;25.25;23.75;;;;;19.28;50.08;101457.69;5075980;27;45448;-51
2021/06/25 04:56:10;;;;;;;;;26.25;23.75;;;;;19.30;50.18;101448.59;5067249;27;45408;-48
2021/06/25 04:58:36;;;;;;;;;26.50;25.50;;;;;19.35;50.19;101451.09;5079193;28;45422;-51
2021/06/25 05:01:01;;;;;;;;;24.00;24.00;;;;;19.37;50.01;101447.38;5068724;27;48173;-49
2021/06/25 05:03:27;;;;;;;;;23.75;22.50;;;;;19.41;50.00;101453.47;5075049;28;45694;-49
2021/06/25 05:05:53;;;;;;;;;29.25;24.75;;;;;19.44;49.92;101460.53;5074444;27;45285;-50
2021/06/25 05:08:18;;;;;;;;;26.75;25.25;;;;;19.47;50.08;101455.03;5074568;27;45471;-50
2021/06/25 05:10:43;;;;;;;;;23.75;22.75;;;;;19.49;49.83;101459.38;5080258;28;47177;-51
2021/06/25 05:13:11;;;;;;;;;22.75;22.75;;;;;19.51;49.86;101457.47;5087364;27;45834;-53
2021/06/25 05:15:36;;;;;;;;;26.75;25.50;;;;;19.54;49.95;101459.16;5076511;28;45320;-50
2021/06/25 05:18:20;;;;;;;;;24.75;24.00;;;;;19.56;49.79;101455.47;5080344;27;45677;-50
2021/06/25 05:20:46;;;;;;;;;28.50;25.75;;;;;19.57;49.62;101459.06;5079576;27;47485;-47
2021/06/25 05:23:16;;;;;;;;;26.50;26.00;;;;;19.57;49.58;101459.06;5076751;27;45329;-49
2021/06/25 05:25:42;;;;;;;;;27.00;25.75;;;;;19.57;49.51;101459.94;5079022;28;45342;-49
2021/06/25 05:28:09;;;;;;;;;34.25;27.75;;;;;19.59;49.43;101459.88;5080267;27;45561;-47
2021/06/25 05:30:35;;;;;;;;;29.75;29.00;;;;;19.61;50.01;101460.66;5062463;27;46932;-53
2021/06/25 05:33:03;;;;;;;;;25.75;23.75;;;;;19.63;49.90;101459.63;5075113;28;45745;-51
2021/06/25 05:35:32;;;;;;;;;29.50;28.50;;;;;19.65;50.00;101454.16;5079884;28;45351;-50
2021/06/25 05:37:59;;;;;;;;;29.00;25.75;;;;;19.69;49.83;101451.28;5090544;27;45758;-53
2021/06/25 05:40:25;;;;;;;;;28.00;25.50;;;;;19.73;49.96;101459.19;5071430;28;47254;-55
2021/06/25 05:42:51;;;;;;;;;27.75;25.50;;;;;19.76;49.67;101454.53;5079557;27;46135;-50
2021/06/25 05:45:16;;;;;;;;;25.75;25.00;;;;;19.80;49.54;101456.13;5075176;28;45546;-51
2021/06/25 05:47:42;;;;;;;;;29.50;28.00;;;;;19.84;49.70;101457.75;5085736;27;45634;-52
2021/06/25 05:50:08;;;;;;;;;30.75;29.75;;;;;19.88;49.36;101461.16;5059341;28;45385;-50
2021/06/25 05:52:34;;;;;;;;;30.25;28.00;;;;;19.91;49.34;101467.25;5071951;28;45543;-51
2021/06/25 05:54:59;;;;;;;;;29.25;28.25;;;;;19.94;49.15;101459.00;5071754;27;45707;-49
2021/06/25 05:57:24;;;;;;;;;28.50;28.25;;;;;19.98;49.30;101460.63;5078213;28;45611;-50
2021/06/25 05:59:50;;;;;;;;;30.75;28.50;;;;;19.98;49.28;101454.38;5066568;27;47303;-52
2021/06/25 06:02:15;;;;;;;;;28.00;28.00;;;;;20.00;48.90;101465.94;5074681;28;45471;-49
2021/06/25 06:04:41;;;;;;;;;34.00;30.00;;;;;20.03;48.97;101464.91;5073366;27;45361;-53
2021/06/25 06:07:07;;;;;;;;;29.25;27.75;;;;;20.03;49.01;101468.47;5079476;28;45519;-50
2021/06/25 06:09:32;;;;;;;;;30.25;28.50;;;;;20.03;48.71;101465.78;5078105;27;48143;-47
2021/06/25 06:11:58;;;;;;;;;28.00;27.00;;;;;20.04;48.84;101467.53;5076858;27;45891;-50
2021/06/25 06:14:23;;;;;;;;;27.00;25.50;;;;;20.06;48.67;101467.44;5071948;28;45442;-46
2021/06/25 06:16:49;;;;;;;;;27.00;27.00;;;;;20.08;49.01;101465.59;5079591;28;45565;-50
2021/06/25 06:19:16;;;;;;;;;28.25;26.50;;;;;20.09;48.41;101462.81;5078770;27;47363;-47
2021/06/25 06:33:02;;;;;;;;;26.00;26.00;;;;;20.19;48.55;101450.59;5075697;28;45368;-51
2021/06/25 06:35:27;;;;;;;;;31.75;28.75;;;;;20.21;48.30;101454.13;5077447;28;45459;-47
2021/06/25 06:37:56;;;;;;;;;31.50;30.25;;;;;20.23;48.51;101448.63;5075921;27;45404;-48
2021/06/25 06:40:21;;;;;;;;;27.25;26.00;;;;;20.26;48.04;101445.78;5070274;27;48219;-50
2021/06/25 06:42:47;;;;;;;;;28.50;26.75;;;;;20.28;48.48;101452.84;5072331;28;45353;-52
2021/06/25 06:45:16;;;;;;;;;25.75;24.25;;;;;20.33;48.14;101449.03;5079049;27;45622;-52
2021/06/25 06:47:41;;;;;;;;;28.00;26.50;;;;;20.36;48.01;101455.16;5090591;27;45662;-49
2021/06/25 06:50:07;;;;;;;;;27.00;25.00;;;;;20.41;48.13;101452.22;5070454;28;47345;-49
2021/06/25 06:52:33;;;;;;;;;25.50;24.25;;;;;20.46;47.59;101444.81;5070958;28;45427;-49
2021/06/25 06:54:58;;;;;;;;;25.50;25.25;;;;;20.52;47.82;101447.19;5069597;27;45805;-49
2021/06/25 06:57:24;;;;;;;;;25.50;24.50;;;;;20.57;47.63;101442.41;5065972;27;45430;-50
2021/06/25 06:59:49;;;;;;;;;28.00;26.75;;;;;20.62;47.58;101444.88;5070721;27;47202;-48
2021/06/25 07:02:15;;;;;;;;;25.00;24.75;;;;;20.65;46.95;101448.28;5085363;27;45472;-55
2021/06/25 07:04:40;;;;;;;;;31.25;30.00;;;;;20.67;47.06;101450.91;5062432;28;45318;-55
2021/06/25 07:07:06;;;;;;;;;31.25;28.25;;;;;20.66;46.46;101439.25;5077925;28;45386;-55
2021/06/25 07:09:32;;;;;;;;;29.00;26.00;;;;;20.70;46.79;101448.91;5076842;28;46990;-55
2021/06/25 07:11:57;;;;;;;;;25.00;25.00;;;;;20.76;46.77;101448.59;5073570;27;45583;-55
2021/06/25 07:14:23;;;;;;;;;30.50;28.25;;;;;20.82;46.32;101450.09;5064994;28;45365;-54
2021/06/25 07:16:48;;;;;;;;;28.50;26.75;;;;;20.85;46.30;101442.75;5073864;27;45371;-54
2021/06/25 07:19:15;;;;;;;;;24.00;23.50;;;;;20.89;45.87;101450.66;5074018;28;47279;-57
2021/06/25 07:21:41;;;;;;;;;28.00;28.00;;;;;20.92;45.56;101448.66;5059691;28;45421;-57
2021/06/25 07:24:07;;;;;;;;;22.25;22.25;;;;;20.97;45.79;101440.34;5067784;27;46996;-55
2021/06/25 07:26:33;;;;;;;;;24.25;22.25;;;;;21.01;45.31;101447.31;5058132;28;45555;-56
2021/06/25 07:28:58;;;;;;;;;24.50;23.25;;;;;21.02;45.30;101449.06;5065271;28;47259;-55
2021/06/25 07:31:24;;;;;;;;;24.25;22.75;;;;;21.00;44.84;101430.25;5072454;28;46269;-56
2021/06/25 07:33:49;;;;;;;;;24.25;21.50;;;;;21.00;45.37;101434.78;5069137;28;45506;-56
2021/06/25 07:36:17;;;;;;;;;23.25;22.75;;;;;21.01;44.86;101432.00;5077450;27;45369;-56
2021/06/25 07:38:42;;;;;;;;;24.25;24.25;;;;;21.04;44.91;101429.13;5074930;27;47295;-55
2021/06/25 07:41:08;;;;;;;;;25.25;23.75;;;;;21.08;45.06;101427.13;5083389;27;45414;-57
2021/06/25 07:43:33;;;;;;;;;26.00;25.00;;;;;21.11;44.90;101419.75;5078151;28;45357;-57
2021/06/25 07:45:59;;;;;;;;;23.25;23.25;;;;;21.16;44.45;101422.19;5078340;27;45529;-56
2021/06/25 07:48:24;;;;;;;;;22.00;22.00;;;;;21.19;44.77;101429.25;5084459;27;47206;-56
2021/06/25 07:50:50;;;;;;;;;22.75;21.75;;;;;21.17;44.84;101419.41;5077234;27;45394;-56
2021/06/25 07:53:15;;;;;;;;;22.75;21.25;;;;;21.17;44.38;101423.94;5076491;27;45328;-55
2021/06/25 07:55:43;;;;;;;;;24.75;23.75;;;;;21.10;44.27;101412.59;5068133;27;45555;-54
2021/06/25 07:58:14;;;;;;;;;25.75;23.75;;;;;21.05;44.33;101413.78;5056455;28;48296;-54
2021/06/25 08:00:40;;;;;;;;;21.25;20.50;;;;;20.97;45.05;101414.22;5093560;27;45400;-53
2021/06/25 08:03:05;;;;;;;;;24.75;24.75;;;;;20.92;45.04;101410.88;5072587;27;45431;-55
2021/06/25 08:05:31;;;;;;;;;21.75;19.75;;;;;20.89;44.83;101413.75;5073704;27;45443;-55
2021/06/25 08:07:56;;;;;;;;;23.25;23.00;;;;;20.88;45.10;101413.84;5077464;28;46144;-53
2021/06/25 08:10:22;;;;;;;;;23.25;22.25;;;;;20.85;44.93;101410.38;5075831;27;45472;-55
2021/06/25 08:12:47;;;;;;;;;23.25;21.50;;;;;20.84;44.80;101416.72;5060155;28;45486;-55
2021/06/25 08:15:13;;;;;;;;;25.50;21.50;;;;;20.82;45.22;101412.31;5071008;28;45614;-55
2021/06/25 08:17:39;;;;;;;;;23.75;23.25;;;;;20.81;45.42;101410.59;5078068;27;47874;-56
2021/06/25 08:20:06;;;;;;;;;21.25;21.25;;;;;20.82;45.37;101404.22;5068029;28;45356;-54
2021/06/25 08:22:31;;;;;;;;;20.75;20.75;;;;;20.84;44.95;101407.75;5073532;27;45439;-59
2021/06/25 08:24:58;;;;;;;;;21.25;21.25;;;;;20.91;45.00;101398.34;5079473;27;45580;-56
2021/06/25 08:27:23;;;;;;;;;22.25;20.00;;;;;20.98;45.08;101402.47;5080306;28;47122;-57
2021/06/25 08:29:49;;;;;;;;;24.50;21.00;;;;;21.05;44.75;101400.31;5078639;27;45507;-55
2021/06/25 08:32:15;;;;;;;;;21.50;20.75;;;;;21.09;44.70;101408.16;5081053;28;45314;-57
2021/06/25 08:34:40;;;;;;;;;24.00;24.00;;;;;21.14;45.20;101405.22;5097075;27;45381;-55
2021/06/25 08:37:06;;;;;;;;;22.75;22.25;;;;;21.20;44.87;101395.88;5066358;28;46049;-54
2021/06/25 08:39:32;;;;;;;;;24.00;20.50;;;;;21.24;45.12;101392.09;5077507;28;45244;-55
2021/06/25 08:42:02;;;;;;;;;24.75;23.25;;;;;21.30;44.49;101399.84;5075611;28;45408;-53
2021/06/25 08:44:32;;;;;;;;;27.50;23.00;;;;;21.32;44.31;101385.31;5081278;27;45702;-56
2021/06/25 08:46:57;;;;;;;;;20.50;20.50;;;;;21.32;44.29;101385.31;5081505;27;45812;-53
2021/06/25 08:49:26;;;;;;;;;22.75;21.25;;;;;21.37;44.70;101376.97;5075838;27;45562;-56
2021/06/25 08:51:52;;;;;;;;;18.00;17.25;;;;;21.44;44.77;101381.06;5078421;28;45554;-53
2021/06/25 08:54:18;;;;;;;;;25.00;22.25;;;;;21.52;44.19;101380.63;5079274;28;45465;-55
2021/06/25 08:56:43;;;;;;;;;20.50;20.00;;;;;21.57;44.09;101379.41;5076210;27;47126;-56
2021/06/25 08:59:09;;;;;;;;;21.00;19.75;;;;;21.59;44.04;101382.88;5072549;28;45533;-56
2021/06/25 09:01:36;;;;;;;;;21.75;20.00;;;;;21.61;43.84;101375.59;5070669;28;45468;-56
2021/06/25 09:04:03;;;;;;;;;25.25;22.50;;;;;21.68;43.39;101379.66;5068748;28;45502;-56
2021/06/25 09:06:29;;;;;;;;;24.25;23.00;;;;;21.71;43.76;101371.38;5076730;28;46642;-54
2021/06/25 09:09:12;;;;;;;;;22.75;22.75;;;;;21.72;43.88;101365.03;5076094;28;45477;-56
2021/06/25 09:11:40;;;;;;;;;26.50;23.75;;;;;21.72;44.14;101367.75;5090736;27;45383;-56
2021/06/25 09:14:06;;;;;;;;;21.50;21.50;;;;;21.73;43.69;101371.31;5065406;28;45421;-55
2021/06/25 09:16:35;;;;;;;;;22.75;22.75;;;;;21.75;43.76;101363.97;5079902;27;48443;-56
2021/06/25 09:19:04;;;;;;;;;21.00;21.00;;;;;21.80;43.96;101369.09;5078600;27;46317;-55
2021/06/25 09:21:34;;;;;;;;;19.75;19.75;;;;;21.83;43.74;101361.69;5091793;27;45437;-55
2021/06/25 09:24:21;;;;;;;;;21.00;20.00;;;;;21.86;43.65;101364.22;5075442;28;45332;-54
2021/06/25 09:26:48;;;;;;;;;19.75;18.75;;;;;21.90;43.37;101357.69;5080476;27;47236;-53
2021/06/25 09:29:25;;;;;;;;;17.75;17.75;;;;;21.97;43.78;101356.34;5071882;28;45447;-54
2021/06/25 09:32:00;;;;;;;;;22.75;20.00;;;;;22.02;43.44;101356.09;5082677;27;45381;-54
2021/06/25 09:34:35;;;;;;;;;20.50;19.25;;;;;22.03;43.16;101350.59;5078004;28;45456;-56
2021/06/25 09:37:02;;;;;;;;;24.25;21.25;;;;;22.02;43.37;101351.56;5076752;28;47616;-55
2021/06/25 09:39:28;;;;;;;;;19.50;16.50;;;;;22.07;43.39;101347.72;5070796;27;45698;-54
2021/06/25 09:41:53;;;;;;;;;19.75;17.25;;;;;22.12;43.62;101346.50;5061292;28;45663;-53
2021/06/25 09:44:20;;;;;;;;;20.75;20.25;;;;;22.16;43.29;101347.19;5061390;27;45557;-55
2021/06/25 09:46:50;;;;;;;;;22.00;20.25;;;;;22.21;43.42;101350.47;5075609;27;47195;-54
2021/06/25 09:49:22;;;;;;;;;17.25;16.00;;;;;22.24;43.08;101343.06;5069016;28;45946;-53
2021/06/25 09:51:53;;;;;;;;;17.25;15.75;;;;;22.29;43.28;101346.34;5077261;28;45886;-54
2021/06/25 09:54:19;;;;;;;;;15.75;14.25;;;;;22.35;43.62;101336.97;5084067;27;45511;-56
2021/06/25 09:59:33;;;;;;;;;17.50;16.00;;;;;22.49;43.30;101336.16;5076094;27;45538;-56
2021/06/25 10:02:21;;;;;;;;;15.75;15.75;;;;;22.53;43.09;101341.28;5063754;28;45404;-56
2021/06/25 10:04:54;;;;;;;;;14.50;14.50;;;;;22.60;43.64;101329.09;5094926;27;45329;-65
2021/06/25 10:07:24;;;;;;;;;17.00;16.75;;;;;22.67;43.48;101332.31;5073619;27;47235;-53
2021/06/25 10:09:51;;;;;;;;;18.50;18.25;;;;;22.73;43.41;101334.63;5069165;28;45286;-54
2021/06/25 10:12:19;;;;;;;;;15.75;15.75;;;;;22.77;43.26;101336.19;5076018;27;45482;-54
2021/06/25 10:14:47;;;;;;;;;16.25;16.25;;;;;22.83;43.32;101337.66;5073955;27;45583;-53
2021/06/25 10:17:14;;;;;;;;;15.00;13.75;;;;;22.89;43.46;101335.44;5073640;28;47803;-53
2021/06/25 10:19:49;;;;;;;;;19.75;18.50;;;;;22.99;43.37;101334.84;5067641;28;45291;-55
2021/06/25 10:22:16;;;;;;;;;17.25;17.25;;;;;;;;5067800;28;45632;-55
2021/06/25 10:24:46;;;;;;;;;14.50;13.50;;;;;23.19;42.61;101329.03;5085350;27;46127;-55
2021/06/25 10:27:12;;;;;;;;;19.00;16.00;;;;;23.28;42.88;101323.03;5070717;27;47173;-55
2021/06/25 10:29:39;;;;;;;;;18.50;14.50;;;;;23.39;42.68;101316.91;5065894;27;45301;-56
2021/06/25 10:32:10;;;;;;;;;14.00;14.00;;;;;23.51;42.76;101328.78;5070452;27;45448;-53
2021/06/25 10:34:40;;;;;;;;;12.75;12.00;;;;;23.55;42.29;101323.03;5070236;28;45683;-56
2021/06/25 10:37:07;;;;;;;;;10.75;10.75;;;;;23.59;42.04;101321.88;5069578;27;47480;-55
2021/06/25 10:39:35;;;;;;;;;12.25;12.00;;;;;23.63;42.17;101311.72;5071547;27;45708;-55
2021/06/25 10:42:04;;;;;;;;;10.00;10.00;;;;;23.67;42.44;101307.84;5090880;27;45380;-55
2021/06/25 10:44:30;;;;;;;;;11.25;11.25;;;;;23.71;42.29;101315.66;5063165;28;45586;-56
2021/06/25 10:46:56;;;;;;;;;11.50;10.75;;;;;23.78;42.61;101308.00;5068476;27;45832;-54
2021/06/25 10:49:21;;;;;;;;;9.50;9.50;;;;;23.85;42.48;101305.72;5066320;28;45750;-56
2021/06/25 10:51:47;;;;;;;;;10.50;10.25;;;;;23.92;42.35;101302.50;5074179;28;45656;-54
2021/06/25 10:54:22;;;;;;;;;14.25;14.25;;;;;24.00;42.08;101305.53;5071027;28;45582;-55
2021/06/25 10:56:47;;;;;;;;;13.00;12.25;;;;;24.08;42.37;101303.19;5063265;27;47295;-53
2021/06/25 10:59:23;;;;;;;;;12.00;12.00;;;;;24.13;42.24;101302.84;5074314;28;45329;-52
2021/06/25 11:02:01;;;;;;;;;10.75;10.25;;;;;24.14;42.43;101304.63;5062634;28;45423;-53
2021/06/25 11:04:30;;;;;;;;;10.50;10.50;;;;;24.16;42.47;101301.78;5078603;27;45505;-57
2021/06/25 11:06:57;;;;;;;;;13.25;12.25;;;;;24.20;42.41;101301.47;5078361;27;47509;-55
2021/06/25 11:09:29;;;;;;;;;11.75;11.50;;;;;24.22;42.28;101304.06;5097434;27;45470;-56
2021/06/25 11:12:21;;;;;;;;;11.25;10.25;;;;;24.26;42.26;101305.56;5075341;27;46503;-55
2021/06/25 11:14:48;;;;;;;;;8.00;8.00;;;;;24.24;42.05;101302.97;5072948;28;45624;-57
2021/06/25 11:17:54;;;;;;;;;8.33;8.00;;;;;24.21;41.98;101308.63;5067541;28;48229;-56
2021/06/25 11:20:24;;;;;;;;;10.75;10.75;;;;;24.22;42.15;101304.06;5066076;28;45535;-56
2021/06/25 11:22:53;;;;;;;;;10.00;9.00;;;;;24.26;41.97;101301.03;5079407;27;45546;-55